首页
METAR-TAF:

METAR-TAF

机场 :

卡尔加里国际机场

卡尔加里, 艾伯塔, 加拿大

纬度: 51-07N, 经度: 114-01W, 海拔: 1077米

当前天气观测

该预报发布于1小时和8分钟前的02:00 UTC
风速4节,风向
温度 -5°C
湿度 73%
气压 1017 hPa
能見度: 24.1公里
天空无云

METAR: CYYC 220200Z 18004KT 15SM SKC M05/M09 A3003 RMK SLP234

时间: 20:08 (03:08 UTC)

预报

该预报发布于30分钟前的02:38 UTC
预报有效从22日的 03点(UTC)到 22日的 24点(UTC)
风速5节,风向
能見度: 10公里
天空无云
成为
从 22日的 06点(UTC)到 22日的 08点(UTC)
风速5节,风向西
从 22日的 1700点(UTC)
风速10节,风向西转西南
能見度: 10公里
散云层高于10000英尺
成为
从 22日的 18点(UTC)到 22日的 20点(UTC)
风速15节,风向西,有时为25节阵风

TAF: CYYC 220238Z 2203/2224 18005KT P6SM SKC BECMG 2206/2208 26005KT FM221700 25010KT P6SM SCT100 BECMG 2218/2220 27015G25KT RMK NXT FCST BY 220600Z

超过4000个机场的气象观测和天气预报(METAR&TAF报告)。

可查询的气象台以黄色和红色小点在地图上表示。

将鼠标移到小点上方,可查看气象台名称。

然后点击查看天气观测和预报。

如需切换地图:点击带黑十字的绿色按钮放大地图;点击带横线的绿色按钮缩小地图;或者点击绿色箭头查看邻近地区的地图。


METAR-TAF: